createdAt,value
2022-10-10T00:01:51.450Z,16
2022-10-10T00:04:39.012Z,18.6
2022-10-10T00:07:26.594Z,20.9
2022-10-10T00:10:15.145Z,18.9
2022-10-10T00:13:02.803Z,20.4
2022-10-10T00:15:51.776Z,19.7
2022-10-10T00:18:39.302Z,18.4
2022-10-10T00:21:28.014Z,19
2022-10-10T00:24:16.885Z,19.2
2022-10-10T00:27:04.497Z,20.6
2022-10-10T00:29:52.035Z,20.5
2022-10-10T00:32:39.722Z,22.5
2022-10-10T00:35:27.290Z,19.6
2022-10-10T00:38:15.733Z,20.9
2022-10-10T00:41:03.254Z,16.6
2022-10-10T00:43:51.148Z,20.1
2022-10-10T00:46:48.083Z,21.6
2022-10-10T00:49:35.683Z,22
2022-10-10T00:52:26.731Z,23.7
2022-10-10T00:55:15.131Z,16.1
2022-10-10T00:58:03.695Z,18
2022-10-10T01:00:53.355Z,24.7
2022-10-10T01:03:41.803Z,17.3
2022-10-10T01:06:29.583Z,20
2022-10-10T01:09:18.334Z,20.8
2022-10-10T01:12:06.382Z,19.3
2022-10-10T01:15:06.979Z,16.7
2022-10-10T01:18:01.736Z,21.7
2022-10-10T01:21:00.695Z,20.9
2022-10-10T01:23:58.374Z,21.1
2022-10-10T01:27:22.238Z,26.3
2022-10-10T01:30:15.781Z,22
2022-10-10T01:33:06.870Z,19.2
2022-10-10T01:36:00.198Z,23.9
2022-10-10T01:38:54.960Z,20.6
2022-10-10T01:41:50.896Z,22.1
2022-10-10T01:44:44.449Z,21.6
2022-10-10T01:47:32.470Z,21.5
2022-10-10T01:50:20.154Z,24.5
2022-10-10T01:53:11.469Z,25.1
2022-10-10T01:56:05.680Z,24.3
2022-10-10T01:58:59.161Z,23.5
2022-10-10T02:02:00.253Z,24.8
2022-10-10T02:04:53.728Z,22.2
2022-10-10T02:07:45.930Z,25.4
2022-10-10T02:10:38.475Z,25.5
2022-10-10T02:13:29.939Z,25.7
2022-10-10T02:16:23.727Z,21.6
2022-10-10T02:19:17.084Z,28.6
2022-10-10T02:22:06.972Z,21.7
2022-10-10T02:24:55.296Z,24.9
2022-10-10T02:27:42.974Z,25.5
2022-10-10T02:30:35.176Z,18
2022-10-10T02:33:29.585Z,22.5
2022-10-10T02:36:26.637Z,22.6
2022-10-10T02:39:16.469Z,22.6
2022-10-10T02:42:07.424Z,22.6
2022-10-10T02:44:58.097Z,20.2
2022-10-10T02:47:46.973Z,26.6
2022-10-10T02:50:35.631Z,21.6
2022-10-10T02:53:23.525Z,22.7
2022-10-10T02:56:11.238Z,21.1
2022-10-10T02:58:58.950Z,20.2
2022-10-10T03:01:46.584Z,21.2
2022-10-10T03:04:34.284Z,23.1
2022-10-10T03:07:22.210Z,20.5
2022-10-10T03:10:09.964Z,19.7
2022-10-10T03:12:57.624Z,25
2022-10-10T03:15:45.545Z,27.4
2022-10-10T03:18:33.554Z,23
2022-10-10T03:21:21.104Z,20.6
2022-10-10T03:24:08.611Z,19.7
2022-10-10T03:26:56.181Z,24.3
2022-10-10T03:29:43.780Z,20.8
2022-10-10T03:32:31.291Z,21.9
2022-10-10T03:35:18.908Z,20.6
2022-10-10T03:38:06.363Z,23.7
2022-10-10T03:40:55.243Z,25.8
2022-10-10T03:43:42.820Z,23.3
2022-10-10T03:46:30.425Z,22.8
2022-10-10T03:49:17.975Z,24.3
2022-10-10T03:52:05.652Z,26.2
2022-10-10T03:54:53.172Z,24
2022-10-10T03:57:40.694Z,25.6
2022-10-10T04:00:28.801Z,25.9
2022-10-10T04:03:17.196Z,24.2
2022-10-10T04:06:04.940Z,17.5
2022-10-10T04:08:53.505Z,25.9
2022-10-10T04:11:41.433Z,23.7
2022-10-10T04:14:29.474Z,20.4
2022-10-10T04:17:17.412Z,23.6
2022-10-10T04:20:05.351Z,19.5
2022-10-10T04:22:53.905Z,25.5
2022-10-10T04:25:41.684Z,22.3
2022-10-10T04:28:30.353Z,19
2022-10-10T04:31:18.119Z,24.3
2022-10-10T04:34:06.091Z,17.6
2022-10-10T04:36:53.819Z,22.1
2022-10-10T04:39:41.374Z,21.4
2022-10-10T04:42:29.018Z,21
2022-10-10T04:45:17.157Z,19.1
2022-10-10T04:48:04.908Z,19
2022-10-10T04:50:52.406Z,19.8
2022-10-10T04:53:44.809Z,18.1
2022-10-10T04:56:34.471Z,19.1
2022-10-10T04:59:22.079Z,20
2022-10-10T05:02:09.672Z,18.1
2022-10-10T05:04:57.167Z,18.8
2022-10-10T05:07:44.662Z,23.6
2022-10-10T05:10:32.307Z,21.4
2022-10-10T05:13:23.404Z,20.7
2022-10-10T05:16:10.862Z,20.7
2022-10-10T05:18:58.782Z,23.8
2022-10-10T05:21:46.795Z,21.2
2022-10-10T05:24:34.327Z,19.3
2022-10-10T05:27:21.902Z,21.2
2022-10-10T05:30:09.426Z,21.7
2022-10-10T05:32:57.964Z,22.1
2022-10-10T05:35:45.589Z,19.1
2022-10-10T05:38:33.121Z,20
2022-10-10T05:41:20.672Z,19.6
2022-10-10T05:44:08.174Z,20.6
2022-10-10T05:46:56.278Z,19
2022-10-10T05:49:43.878Z,18.9
2022-10-10T05:52:31.406Z,17.9
2022-10-10T05:55:19.862Z,20.5
2022-10-10T05:58:07.422Z,17.9
2022-10-10T06:00:55.017Z,21.7
2022-10-10T06:03:48.455Z,17
2022-10-10T06:06:40.461Z,19.7
2022-10-10T06:09:28.628Z,21.9
2022-10-10T06:12:17.421Z,15.6
2022-10-10T06:15:04.891Z,19.4
2022-10-10T06:17:53.549Z,25
2022-10-10T06:20:41.423Z,24.3
2022-10-10T06:23:29.566Z,20.6
2022-10-10T06:26:18.184Z,17
2022-10-10T06:29:05.903Z,18.4
2022-10-10T06:31:53.422Z,15.7
2022-10-10T06:34:40.936Z,18.6
2022-10-10T06:37:29.038Z,14.8
2022-10-10T06:40:17.220Z,17.8
2022-10-10T06:43:04.711Z,16.8
2022-10-10T06:45:56.352Z,16.4
2022-10-10T06:48:44.797Z,19.8
2022-10-10T06:51:32.462Z,19.7
2022-10-10T06:54:20.502Z,16.9
2022-10-10T06:57:08.230Z,17.8
2022-10-10T06:59:55.818Z,17.9
2022-10-10T07:02:43.490Z,15.5
2022-10-10T07:05:31.235Z,15.8
2022-10-10T07:08:19.114Z,15.7
2022-10-10T07:11:07.558Z,15.9
2022-10-10T07:13:55.574Z,16.3
2022-10-10T07:16:43.193Z,19.8
2022-10-10T07:19:30.971Z,16.8
2022-10-10T07:22:18.886Z,18
2022-10-10T07:25:06.697Z,15.9
2022-10-10T07:27:54.496Z,13.9
2022-10-10T07:30:42.339Z,16.6
2022-10-10T07:33:31.800Z,15.1
2022-10-10T07:36:21.697Z,13.9
2022-10-10T07:39:12.699Z,18.2
2022-10-10T07:42:04.962Z,17
2022-10-10T07:44:52.636Z,16.7
2022-10-10T07:47:40.316Z,16.1
2022-10-10T07:50:27.903Z,16.4
2022-10-10T07:53:16.729Z,15.5
2022-10-10T07:56:04.418Z,20
2022-10-10T07:58:53.909Z,13.6
2022-10-10T08:01:41.560Z,13.7
2022-10-10T08:04:29.411Z,15
2022-10-10T08:07:17.751Z,16
2022-10-10T08:10:05.441Z,14.2
2022-10-10T08:12:54.543Z,14.6
2022-10-10T08:15:42.094Z,14
2022-10-10T08:18:29.970Z,14.3
2022-10-10T08:21:17.991Z,11.9
2022-10-10T08:24:05.813Z,16.2
2022-10-10T08:26:54.390Z,13.5
2022-10-10T08:29:42.655Z,13.3
2022-10-10T08:32:30.566Z,15.5
2022-10-10T08:35:18.898Z,16.4
2022-10-10T08:38:06.495Z,16.4
2022-10-10T08:40:54.058Z,13.5
2022-10-10T08:43:45.243Z,16.3
2022-10-10T08:46:37.517Z,16.7
2022-10-10T08:49:29.703Z,16.2
2022-10-10T08:52:22.152Z,13.3
2022-10-10T08:55:16.990Z,13.8
2022-10-10T08:58:09.182Z,15.4
2022-10-10T09:01:05.459Z,14.3
2022-10-10T09:03:58.691Z,13.6
2022-10-10T09:06:48.647Z,17.2
2022-10-10T09:09:53.053Z,16.6
2022-10-10T09:12:51.018Z,13.7
2022-10-10T09:15:49.463Z,13.7
2022-10-10T09:18:43.206Z,19.6
2022-10-10T09:21:44.208Z,13.8
2022-10-10T09:24:33.287Z,15.6
2022-10-10T09:27:26.356Z,15.3
2022-10-10T09:30:19.052Z,17.9
2022-10-10T09:33:07.126Z,15.4
2022-10-10T09:36:06.935Z,15.5
2022-10-10T09:38:58.823Z,16.6
2022-10-10T09:41:51.951Z,15.1
2022-10-10T09:44:43.470Z,14
2022-10-10T09:47:31.468Z,13.5
2022-10-10T09:50:19.042Z,13.5
2022-10-10T09:53:07.688Z,14.4
2022-10-10T09:55:59.836Z,14.9
2022-10-10T09:58:49.768Z,12.3
2022-10-10T10:01:39.502Z,13.7
2022-10-10T10:04:29.074Z,13.9
2022-10-10T10:07:18.237Z,12.7
2022-10-10T10:10:11.076Z,12.6
2022-10-10T10:13:05.513Z,13.4
2022-10-10T10:15:59.726Z,10.6
2022-10-10T10:18:51.478Z,11.1
2022-10-10T10:21:39.244Z,13.9
2022-10-10T10:24:35.344Z,11.5
2022-10-10T10:27:23.775Z,13.2
2022-10-10T10:30:13.683Z,11
2022-10-10T10:33:11.116Z,10.9
2022-10-10T10:36:10.696Z,11.9
2022-10-10T10:39:10.577Z,11.6
2022-10-10T10:42:11.083Z,10.8
2022-10-10T10:45:10.519Z,12.4
2022-10-10T10:48:02.735Z,9.5
2022-10-10T10:51:01.140Z,9.3
2022-10-10T10:54:00.877Z,11.1
2022-10-10T10:57:06.692Z,11.2
2022-10-10T11:00:17.037Z,11.1
2022-10-10T11:05:15.412Z,11.3
2022-10-10T11:08:19.748Z,9.3
2022-10-10T11:11:31.840Z,10.6
2022-10-10T11:14:34.691Z,11.2
2022-10-10T11:17:37.185Z,12.3
2022-10-10T11:20:30.658Z,10.5
2022-10-10T11:23:24.016Z,14.5
2022-10-10T11:26:19.172Z,10.1
2022-10-10T11:29:11.968Z,10.7
2022-10-10T11:32:05.282Z,11.1
2022-10-10T11:34:58.721Z,11.6
2022-10-10T11:38:01.679Z,9
2022-10-10T11:40:59.980Z,8.9
2022-10-10T11:43:51.032Z,9.5
2022-10-10T11:46:44.722Z,10.1
2022-10-10T11:49:39.557Z,10
2022-10-10T11:52:37.116Z,13.6
2022-10-10T11:55:33.487Z,10
2022-10-10T11:58:26.503Z,15.9
2022-10-10T12:01:20.341Z,7.9
2022-10-10T12:04:13.369Z,10.9
2022-10-10T12:07:01.448Z,9.4
2022-10-10T12:09:54.149Z,8.3
2022-10-10T12:12:46.299Z,8.7
2022-10-10T12:15:42.621Z,8.9
2022-10-10T12:18:37.882Z,8.8
2022-10-10T12:21:29.929Z,12
2022-10-10T12:24:42.508Z,9.4
2022-10-10T12:28:05.794Z,7.3
2022-10-10T12:31:10.763Z,8.1
2022-10-10T12:34:17.251Z,8.9
2022-10-10T12:37:27.611Z,10.1
2022-10-10T12:40:17.471Z,10.6
2022-10-10T12:43:07.941Z,10.1
2022-10-10T12:46:23.488Z,11.4
2022-10-10T12:49:15.879Z,9.9
2022-10-10T12:52:06.941Z,9.9
2022-10-10T12:55:06.944Z,9.1
2022-10-10T12:58:05.015Z,10.7
2022-10-10T13:01:00.817Z,10.5
2022-10-10T13:03:52.736Z,10.3
2022-10-10T13:06:41.898Z,9.2
2022-10-10T13:09:35.115Z,9.7
2022-10-10T13:12:23.761Z,10.2
2022-10-10T13:15:13.967Z,10.5
2022-10-10T13:18:04.756Z,13.2
2022-10-10T13:20:52.383Z,9.6
2022-10-10T13:23:41.554Z,15.5
2022-10-10T13:26:32.483Z,10.3
2022-10-10T13:29:23.937Z,12.6
2022-10-10T13:32:16.231Z,12.9
2022-10-10T13:35:07.254Z,8.7
2022-10-10T13:38:01.316Z,9.7
2022-10-10T13:40:51.314Z,12.4
2022-10-10T13:43:39.231Z,9.5
2022-10-10T13:46:27.835Z,7.5
2022-10-10T13:49:18.090Z,9.8
2022-10-10T13:52:09.830Z,11.7
2022-10-10T13:55:07.598Z,9.9
2022-10-10T13:58:10.357Z,8.8
2022-10-10T14:01:00.853Z,11.4
2022-10-10T14:03:50.071Z,13.1
2022-10-10T14:06:40.375Z,10.1
2022-10-10T14:09:41.845Z,14.2
2022-10-10T14:12:34.351Z,9.4
2022-10-10T14:15:27.631Z,8
2022-10-10T14:18:21.952Z,12.6
2022-10-10T14:21:11.147Z,10.8
2022-10-10T14:23:59.215Z,11.6
2022-10-10T14:26:46.753Z,13.4
2022-10-10T14:29:34.553Z,12.8
2022-10-10T14:32:23.531Z,9.3
2022-10-10T14:35:11.756Z,10.5
2022-10-10T14:37:59.472Z,11.8
2022-10-10T14:40:47.255Z,10.8
2022-10-10T14:43:36.348Z,12.5
2022-10-10T14:46:23.993Z,10.7
2022-10-10T14:49:13.159Z,13
2022-10-10T14:52:04.411Z,14.2
2022-10-10T14:54:53.246Z,14.7
2022-10-10T14:57:40.781Z,11.9
2022-10-10T15:00:28.363Z,12.2
2022-10-10T15:03:17.305Z,11.5
2022-10-10T15:06:05.180Z,11.4
2022-10-10T15:08:55.854Z,10.9
2022-10-10T15:11:43.397Z,10.3
2022-10-10T15:14:31.251Z,12.6
2022-10-10T15:17:19.275Z,11.2
2022-10-10T15:20:07.334Z,12.8
2022-10-10T15:22:57.533Z,14.1
2022-10-10T15:25:46.451Z,11.7
2022-10-10T15:28:34.315Z,14.9
2022-10-10T15:31:21.961Z,16.1
2022-10-10T15:34:15.010Z,15.9
2022-10-10T15:37:03.712Z,14.4
2022-10-10T15:39:52.710Z,10.3
2022-10-10T15:42:40.376Z,12.3
2022-10-10T15:45:54.427Z,14.3
2022-10-10T15:48:43.463Z,11.2
2022-10-10T15:51:31.693Z,11.2
2022-10-10T15:54:19.477Z,13.7
2022-10-10T15:57:07.175Z,11.1
2022-10-10T15:59:54.793Z,14.7
2022-10-10T16:02:42.476Z,10.3
2022-10-10T16:05:30.285Z,14.1
2022-10-10T16:08:22.109Z,15.2
2022-10-10T16:11:09.799Z,17.7
2022-10-10T16:14:00.647Z,16.1
2022-10-10T16:16:48.213Z,19
2022-10-10T16:19:35.838Z,18.9
2022-10-10T16:22:23.715Z,16.7
2022-10-10T16:25:22.959Z,20.9
2022-10-10T16:28:11.319Z,19.2
2022-10-10T16:30:59.489Z,16.6
2022-10-10T16:33:48.402Z,18.3
2022-10-10T16:36:37.470Z,17.4
2022-10-10T16:39:25.232Z,19.4
2022-10-10T16:42:12.917Z,18.8
2022-10-10T16:45:00.596Z,17.6
2022-10-10T16:47:48.804Z,21.7
2022-10-10T16:50:36.721Z,19.5
2022-10-10T16:53:25.316Z,18.7
2022-10-10T16:56:12.995Z,18
2022-10-10T16:59:03.750Z,18.4
2022-10-10T17:01:51.591Z,18.2
2022-10-10T17:04:39.258Z,20.5
2022-10-10T17:07:26.876Z,17.2
2022-10-10T17:10:15.102Z,16.7
2022-10-10T17:13:02.928Z,19
2022-10-10T17:15:50.888Z,20.9
2022-10-10T17:18:38.725Z,21.6
2022-10-10T17:21:26.418Z,17.6
2022-10-10T17:24:14.456Z,19.3
2022-10-10T17:27:02.468Z,20.8
2022-10-10T17:29:50.175Z,20
2022-10-10T17:32:37.986Z,22.9
2022-10-10T17:35:26.962Z,18.8
2022-10-10T17:38:34.971Z,19.7
2022-10-10T17:41:27.474Z,21.2
2022-10-10T17:44:17.899Z,16.5
2022-10-10T17:47:06.058Z,17.7
2022-10-10T17:49:53.785Z,18.4
2022-10-10T17:52:41.430Z,23.1
2022-10-10T17:55:29.940Z,16.6
2022-10-10T17:58:18.415Z,18
2022-10-10T18:01:06.201Z,19.9
2022-10-10T18:03:54.231Z,15.8
2022-10-10T18:06:41.872Z,16.8
2022-10-10T18:09:29.733Z,15.8
2022-10-10T18:12:18.373Z,19.1
2022-10-10T18:15:06.087Z,17.3
2022-10-10T18:17:54.381Z,18.2
2022-10-10T18:20:42.209Z,18.6
2022-10-10T18:23:31.130Z,18.2
2022-10-10T18:26:19.476Z,20.6
2022-10-10T18:29:10.171Z,20.7
2022-10-10T18:31:59.158Z,20.5
2022-10-10T18:34:46.860Z,20.3
2022-10-10T18:37:34.441Z,17.6
2022-10-10T18:40:23.092Z,21.2
2022-10-10T18:43:10.590Z,22
2022-10-10T18:45:58.306Z,21.2
2022-10-10T18:48:49.017Z,25.5
2022-10-10T18:51:40.596Z,23.4
2022-10-10T18:54:29.164Z,18.9
2022-10-10T18:57:20.362Z,24
2022-10-10T19:00:07.938Z,28.1
2022-10-10T19:02:56.858Z,25.9
2022-10-10T19:05:44.353Z,27.9
2022-10-10T19:08:32.362Z,28.5
2022-10-10T19:11:20.287Z,27.6
2022-10-10T19:14:10.584Z,25.8
2022-10-10T19:17:00.707Z,28.2
2022-10-10T19:19:48.656Z,24.7
2022-10-10T19:22:37.284Z,27.2
2022-10-10T19:25:24.988Z,33.2
2022-10-10T19:28:14.724Z,26.2
2022-10-10T19:31:03.283Z,33.4
2022-10-10T19:33:52.753Z,29.6
2022-10-10T19:36:42.314Z,31.9
2022-10-10T19:39:30.388Z,27.2
2022-10-10T19:42:18.780Z,29.8
2022-10-10T19:45:06.389Z,26.1
2022-10-10T19:47:55.001Z,28.9
2022-10-10T19:50:43.670Z,31.6
2022-10-10T19:53:38.249Z,28.1
2022-10-10T19:56:27.826Z,28.2
2022-10-10T19:59:16.670Z,25.1
2022-10-10T20:02:04.371Z,31.7
2022-10-10T20:04:52.507Z,28.8
2022-10-10T20:07:40.023Z,25.8
2022-10-10T20:10:27.580Z,28.7
2022-10-10T20:13:15.831Z,26.5
2022-10-10T20:16:03.817Z,26.8
2022-10-10T20:18:54.967Z,26.4
2022-10-10T20:21:43.938Z,30.5
2022-10-10T20:24:31.711Z,25.6
2022-10-10T20:27:20.002Z,25.2
2022-10-10T20:30:07.719Z,27
2022-10-10T20:32:56.372Z,30
2022-10-10T20:35:44.499Z,34.2
2022-10-10T20:38:33.799Z,23.8
2022-10-10T20:41:21.775Z,28.3
2022-10-10T20:44:11.354Z,24.4
2022-10-10T20:47:00.288Z,24.8
2022-10-10T20:49:48.066Z,30
2022-10-10T20:52:35.978Z,25.3
2022-10-10T20:55:23.545Z,25.4
2022-10-10T20:58:11.270Z,33.3
2022-10-10T21:00:59.093Z,20.1
2022-10-10T21:03:51.378Z,22.8
2022-10-10T21:06:39.405Z,26.6
2022-10-10T21:09:27.590Z,22.4
2022-10-10T21:12:16.989Z,26.8
2022-10-10T21:15:05.282Z,21.1
2022-10-10T21:17:53.471Z,29.5
2022-10-10T21:20:41.585Z,22.8
2022-10-10T21:23:29.294Z,21.6
2022-10-10T21:26:21.354Z,25.4
2022-10-10T21:29:11.039Z,21.2
2022-10-10T21:31:58.683Z,18.5
2022-10-10T21:34:46.254Z,18.6
2022-10-10T21:37:33.940Z,20.8
2022-10-10T21:40:21.722Z,22.7
2022-10-10T21:43:09.298Z,18.3
2022-10-10T21:45:57.353Z,17.5
2022-10-10T21:48:48.464Z,15.4
2022-10-10T21:51:36.963Z,19.5
2022-10-10T21:54:26.673Z,20.8
2022-10-10T21:57:14.340Z,16.8
2022-10-10T22:00:02.253Z,18.9
2022-10-10T22:02:53.178Z,18.4
2022-10-10T22:05:40.688Z,18.4
2022-10-10T22:08:29.754Z,16.7
2022-10-10T22:11:18.456Z,19.7
2022-10-10T22:14:09.121Z,20.9
2022-10-10T22:16:56.648Z,19.4
2022-10-10T22:19:44.511Z,18.7
2022-10-10T22:22:32.349Z,20
2022-10-10T22:25:21.494Z,21.1
2022-10-10T22:28:09.063Z,22.2
2022-10-10T22:30:57.242Z,22.4
2022-10-10T22:33:49.171Z,18.8
2022-10-10T22:36:36.780Z,16.9
2022-10-10T22:39:24.413Z,17.4
2022-10-10T22:42:13.006Z,17.1
2022-10-10T22:45:00.606Z,17.5
2022-10-10T22:47:48.631Z,18.2
2022-10-10T22:50:36.425Z,15
2022-10-10T22:53:23.976Z,22.2
2022-10-10T22:56:11.704Z,18.8
2022-10-10T22:59:03.895Z,23.6
2022-10-10T23:01:51.610Z,17
2022-10-10T23:04:40.069Z,15.9
2022-10-10T23:07:27.690Z,18.8
2022-10-10T23:10:15.687Z,18.6
2022-10-10T23:13:03.532Z,19.4
2022-10-10T23:15:51.333Z,16.1
2022-10-10T23:18:39.137Z,16.6
2022-10-10T23:21:26.807Z,16.2
2022-10-10T23:24:14.431Z,15.3
2022-10-10T23:27:02.071Z,16.6
2022-10-10T23:29:49.683Z,15.4
2022-10-10T23:32:37.308Z,18.5
2022-10-10T23:35:25.387Z,14.7
2022-10-10T23:38:12.999Z,14.8
2022-10-10T23:41:00.595Z,15.9
2022-10-10T23:43:49.072Z,15
2022-10-10T23:46:36.615Z,15.6
2022-10-10T23:49:24.139Z,14.8
2022-10-10T23:52:11.800Z,16.7
2022-10-10T23:54:59.347Z,14.3
2022-10-10T23:57:46.963Z,13.2
